sensor_id;sensor_type;location;lat;lon;timestamp;P1;durP1;ratioP1;P2;durP2;ratioP2
10805;SDS011;5455;53.224;6.000;2024-03-07T00:00:30;14.93;;;10.70;;
10805;SDS011;5455;53.224;6.000;2024-03-07T00:02:57;12.17;;;9.53;;
10805;SDS011;5455;53.224;6.000;2024-03-07T00:05:24;14.57;;;10.00;;
10805;SDS011;5455;53.224;6.000;2024-03-07T00:07:52;12.83;;;9.63;;
10805;SDS011;5455;53.224;6.000;2024-03-07T00:10:20;13.87;;;10.00;;
10805;SDS011;5455;53.224;6.000;2024-03-07T00:12:48;12.97;;;9.53;;
10805;SDS011;5455;53.224;6.000;2024-03-07T00:15:15;13.60;;;9.83;;
10805;SDS011;5455;53.224;6.000;2024-03-07T00:17:42;12.97;;;9.80;;
10805;SDS011;5455;53.224;6.000;2024-03-07T00:20:10;13.20;;;9.83;;
10805;SDS011;5455;53.224;6.000;2024-03-07T00:22:47;13.93;;;9.60;;
10805;SDS011;5455;53.224;6.000;2024-03-07T00:25:14;14.00;;;10.03;;
10805;SDS011;5455;53.224;6.000;2024-03-07T00:27:46;14.60;;;10.07;;
10805;SDS011;5455;53.224;6.000;2024-03-07T00:30:13;12.27;;;9.93;;
10805;SDS011;5455;53.224;6.000;2024-03-07T00:32:40;13.87;;;10.40;;
10805;SDS011;5455;53.224;6.000;2024-03-07T00:35:08;12.63;;;10.17;;
10805;SDS011;5455;53.224;6.000;2024-03-07T00:37:36;12.40;;;9.57;;
10805;SDS011;5455;53.224;6.000;2024-03-07T00:40:03;13.93;;;9.73;;
10805;SDS011;5455;53.224;6.000;2024-03-07T00:42:30;14.20;;;9.80;;
10805;SDS011;5455;53.224;6.000;2024-03-07T00:44:57;14.30;;;9.83;;
10805;SDS011;5455;53.224;6.000;2024-03-07T00:47:24;12.57;;;9.37;;
10805;SDS011;5455;53.224;6.000;2024-03-07T00:49:51;12.63;;;9.27;;
10805;SDS011;5455;53.224;6.000;2024-03-07T00:52:18;11.93;;;9.50;;
10805;SDS011;5455;53.224;6.000;2024-03-07T00:54:45;14.27;;;9.40;;
10805;SDS011;5455;53.224;6.000;2024-03-07T00:57:13;11.93;;;9.27;;
10805;SDS011;5455;53.224;6.000;2024-03-07T00:59:41;11.83;;;8.93;;
10805;SDS011;5455;53.224;6.000;2024-03-07T01:02:08;12.63;;;9.27;;
10805;SDS011;5455;53.224;6.000;2024-03-07T01:04:36;12.03;;;9.03;;
10805;SDS011;5455;53.224;6.000;2024-03-07T01:07:03;13.83;;;9.13;;
10805;SDS011;5455;53.224;6.000;2024-03-07T01:09:30;11.43;;;9.07;;
10805;SDS011;5455;53.224;6.000;2024-03-07T01:11:57;13.87;;;9.13;;
10805;SDS011;5455;53.224;6.000;2024-03-07T01:14:27;14.13;;;9.13;;
10805;SDS011;5455;53.224;6.000;2024-03-07T01:16:54;14.20;;;9.17;;
10805;SDS011;5455;53.224;6.000;2024-03-07T01:19:21;13.70;;;9.27;;
10805;SDS011;5455;53.224;6.000;2024-03-07T01:21:48;12.17;;;8.93;;
10805;SDS011;5455;53.224;6.000;2024-03-07T01:24:15;12.10;;;9.00;;
10805;SDS011;5455;53.224;6.000;2024-03-07T01:26:45;13.43;;;9.57;;
10805;SDS011;5455;53.224;6.000;2024-03-07T01:29:12;12.50;;;9.17;;
10805;SDS011;5455;53.224;6.000;2024-03-07T01:31:40;13.83;;;9.60;;
10805;SDS011;5455;53.224;6.000;2024-03-07T01:34:07;11.23;;;8.53;;
10805;SDS011;5455;53.224;6.000;2024-03-07T01:36:34;13.57;;;9.20;;
10805;SDS011;5455;53.224;6.000;2024-03-07T01:39:01;10.70;;;8.80;;
10805;SDS011;5455;53.224;6.000;2024-03-07T01:41:30;12.10;;;8.77;;
10805;SDS011;5455;53.224;6.000;2024-03-07T01:43:58;12.47;;;9.17;;
10805;SDS011;5455;53.224;6.000;2024-03-07T01:46:25;14.37;;;9.13;;
10805;SDS011;5455;53.224;6.000;2024-03-07T01:48:52;13.63;;;8.93;;
10805;SDS011;5455;53.224;6.000;2024-03-07T01:51:19;11.90;;;9.23;;
10805;SDS011;5455;53.224;6.000;2024-03-07T01:53:48;11.80;;;9.33;;
10805;SDS011;5455;53.224;6.000;2024-03-07T01:56:16;14.00;;;9.10;;
10805;SDS011;5455;53.224;6.000;2024-03-07T01:58:46;11.83;;;9.37;;
10805;SDS011;5455;53.224;6.000;2024-03-07T02:01:14;12.27;;;8.90;;
10805;SDS011;5455;53.224;6.000;2024-03-07T02:03:42;11.67;;;8.60;;
10805;SDS011;5455;53.224;6.000;2024-03-07T02:06:09;13.77;;;9.60;;
10805;SDS011;5455;53.224;6.000;2024-03-07T02:08:39;14.03;;;8.93;;
10805;SDS011;5455;53.224;6.000;2024-03-07T02:11:06;13.23;;;9.97;;
10805;SDS011;5455;53.224;6.000;2024-03-07T02:13:35;13.40;;;9.47;;
10805;SDS011;5455;53.224;6.000;2024-03-07T02:16:01;13.63;;;9.30;;
10805;SDS011;5455;53.224;6.000;2024-03-07T02:18:29;13.33;;;9.03;;
10805;SDS011;5455;53.224;6.000;2024-03-07T02:20:56;11.93;;;9.10;;
10805;SDS011;5455;53.224;6.000;2024-03-07T02:23:23;13.47;;;9.60;;
10805;SDS011;5455;53.224;6.000;2024-03-07T02:25:50;13.83;;;9.07;;
10805;SDS011;5455;53.224;6.000;2024-03-07T02:28:18;11.50;;;8.10;;
10805;SDS011;5455;53.224;6.000;2024-03-07T02:30:45;12.30;;;8.77;;
10805;SDS011;5455;53.224;6.000;2024-03-07T02:33:12;12.90;;;9.00;;
10805;SDS011;5455;53.224;6.000;2024-03-07T02:35:40;16.07;;;8.90;;
10805;SDS011;5455;53.224;6.000;2024-03-07T02:38:07;13.20;;;8.93;;
10805;SDS011;5455;53.224;6.000;2024-03-07T02:40:35;10.87;;;8.80;;
10805;SDS011;5455;53.224;6.000;2024-03-07T02:43:02;10.77;;;8.60;;
10805;SDS011;5455;53.224;6.000;2024-03-07T02:45:33;11.73;;;8.67;;
10805;SDS011;5455;53.224;6.000;2024-03-07T02:48:00;9.60;;;7.90;;
10805;SDS011;5455;53.224;6.000;2024-03-07T02:50:28;10.63;;;8.40;;
10805;SDS011;5455;53.224;6.000;2024-03-07T02:52:55;13.57;;;9.00;;
10805;SDS011;5455;53.224;6.000;2024-03-07T02:55:22;10.93;;;8.50;;
10805;SDS011;5455;53.224;6.000;2024-03-07T02:57:49;11.20;;;8.70;;
10805;SDS011;5455;53.224;6.000;2024-03-07T03:00:17;10.83;;;8.30;;
10805;SDS011;5455;53.224;6.000;2024-03-07T03:02:50;10.07;;;8.27;;
10805;SDS011;5455;53.224;6.000;2024-03-07T03:05:17;11.90;;;8.97;;
10805;SDS011;5455;53.224;6.000;2024-03-07T03:07:46;11.80;;;8.53;;
10805;SDS011;5455;53.224;6.000;2024-03-07T03:10:23;11.93;;;8.03;;
10805;SDS011;5455;53.224;6.000;2024-03-07T03:12:58;12.33;;;9.13;;
10805;SDS011;5455;53.224;6.000;2024-03-07T03:15:26;10.47;;;8.17;;
10805;SDS011;5455;53.224;6.000;2024-03-07T03:17:53;12.30;;;8.63;;
10805;SDS011;5455;53.224;6.000;2024-03-07T03:20:21;10.50;;;8.43;;
10805;SDS011;5455;53.224;6.000;2024-03-07T03:22:52;13.00;;;8.37;;
10805;SDS011;5455;53.224;6.000;2024-03-07T03:25:39;10.43;;;8.40;;
10805;SDS011;5455;53.224;6.000;2024-03-07T03:28:08;10.87;;;8.03;;
10805;SDS011;5455;53.224;6.000;2024-03-07T03:30:37;11.00;;;8.27;;
10805;SDS011;5455;53.224;6.000;2024-03-07T03:33:05;11.73;;;8.40;;
10805;SDS011;5455;53.224;6.000;2024-03-07T03:35:33;12.77;;;8.67;;
10805;SDS011;5455;53.224;6.000;2024-03-07T03:38:01;11.57;;;8.13;;
10805;SDS011;5455;53.224;6.000;2024-03-07T03:40:28;10.77;;;7.77;;
10805;SDS011;5455;53.224;6.000;2024-03-07T03:42:55;13.60;;;8.23;;
10805;SDS011;5455;53.224;6.000;2024-03-07T03:45:22;11.37;;;8.33;;
10805;SDS011;5455;53.224;6.000;2024-03-07T03:47:52;10.07;;;8.20;;
10805;SDS011;5455;53.224;6.000;2024-03-07T03:50:20;13.43;;;8.47;;
10805;SDS011;5455;53.224;6.000;2024-03-07T03:52:47;11.40;;;8.30;;
10805;SDS011;5455;53.224;6.000;2024-03-07T03:55:14;10.00;;;7.93;;
10805;SDS011;5455;53.224;6.000;2024-03-07T03:57:42;10.93;;;8.07;;
10805;SDS011;5455;53.224;6.000;2024-03-07T04:00:10;11.00;;;8.20;;
10805;SDS011;5455;53.224;6.000;2024-03-07T04:02:41;12.23;;;8.20;;
10805;SDS011;5455;53.224;6.000;2024-03-07T04:05:10;9.80;;;7.83;;
10805;SDS011;5455;53.224;6.000;2024-03-07T04:07:40;11.63;;;8.30;;
10805;SDS011;5455;53.224;6.000;2024-03-07T04:10:11;11.43;;;8.03;;
10805;SDS011;5455;53.224;6.000;2024-03-07T04:12:39;9.70;;;7.27;;
10805;SDS011;5455;53.224;6.000;2024-03-07T04:15:09;12.63;;;8.00;;
10805;SDS011;5455;53.224;6.000;2024-03-07T04:17:40;10.90;;;7.73;;
10805;SDS011;5455;53.224;6.000;2024-03-07T04:20:08;10.13;;;7.67;;
10805;SDS011;5455;53.224;6.000;2024-03-07T04:22:38;10.43;;;7.93;;
10805;SDS011;5455;53.224;6.000;2024-03-07T04:25:06;11.87;;;7.43;;
10805;SDS011;5455;53.224;6.000;2024-03-07T04:27:34;10.47;;;7.67;;
10805;SDS011;5455;53.224;6.000;2024-03-07T04:30:04;9.73;;;7.63;;
10805;SDS011;5455;53.224;6.000;2024-03-07T04:32:32;10.33;;;7.97;;
10805;SDS011;5455;53.224;6.000;2024-03-07T04:35:01;9.67;;;7.77;;
10805;SDS011;5455;53.224;6.000;2024-03-07T04:37:34;10.13;;;7.57;;
10805;SDS011;5455;53.224;6.000;2024-03-07T04:40:04;11.00;;;8.40;;
10805;SDS011;5455;53.224;6.000;2024-03-07T04:42:37;10.73;;;8.03;;
10805;SDS011;5455;53.224;6.000;2024-03-07T04:45:04;11.30;;;8.57;;
10805;SDS011;5455;53.224;6.000;2024-03-07T04:47:32;9.73;;;8.00;;
10805;SDS011;5455;53.224;6.000;2024-03-07T04:49:59;9.90;;;7.70;;
10805;SDS011;5455;53.224;6.000;2024-03-07T04:52:26;10.23;;;8.30;;
10805;SDS011;5455;53.224;6.000;2024-03-07T04:54:53;9.97;;;7.67;;
10805;SDS011;5455;53.224;6.000;2024-03-07T04:57:20;10.37;;;8.30;;
10805;SDS011;5455;53.224;6.000;2024-03-07T04:59:47;9.73;;;7.70;;
10805;SDS011;5455;53.224;6.000;2024-03-07T05:02:15;12.43;;;8.43;;
10805;SDS011;5455;53.224;6.000;2024-03-07T05:04:42;10.67;;;8.47;;
10805;SDS011;5455;53.224;6.000;2024-03-07T05:07:09;10.60;;;8.70;;
10805;SDS011;5455;53.224;6.000;2024-03-07T05:09:36;12.90;;;9.30;;
10805;SDS011;5455;53.224;6.000;2024-03-07T05:12:03;10.20;;;8.33;;
10805;SDS011;5455;53.224;6.000;2024-03-07T05:14:30;11.00;;;8.17;;
10805;SDS011;5455;53.224;6.000;2024-03-07T05:16:57;10.43;;;8.57;;
10805;SDS011;5455;53.224;6.000;2024-03-07T05:19:36;11.93;;;8.20;;
10805;SDS011;5455;53.224;6.000;2024-03-07T05:22:03;11.13;;;8.50;;
10805;SDS011;5455;53.224;6.000;2024-03-07T05:24:31;10.87;;;7.90;;
10805;SDS011;5455;53.224;6.000;2024-03-07T05:27:00;11.00;;;8.60;;
10805;SDS011;5455;53.224;6.000;2024-03-07T05:29:27;10.50;;;8.13;;
10805;SDS011;5455;53.224;6.000;2024-03-07T05:31:54;13.13;;;8.27;;
10805;SDS011;5455;53.224;6.000;2024-03-07T05:34:21;11.77;;;8.63;;
10805;SDS011;5455;53.224;6.000;2024-03-07T05:36:50;10.83;;;8.53;;
10805;SDS011;5455;53.224;6.000;2024-03-07T05:39:18;9.40;;;7.70;;
10805;SDS011;5455;53.224;6.000;2024-03-07T05:41:45;12.50;;;8.80;;
10805;SDS011;5455;53.224;6.000;2024-03-07T05:44:15;10.93;;;8.63;;
10805;SDS011;5455;53.224;6.000;2024-03-07T05:46:42;10.80;;;8.63;;
10805;SDS011;5455;53.224;6.000;2024-03-07T05:49:15;10.83;;;8.67;;
10805;SDS011;5455;53.224;6.000;2024-03-07T05:51:46;12.07;;;8.83;;
10805;SDS011;5455;53.224;6.000;2024-03-07T05:54:14;11.67;;;9.03;;
10805;SDS011;5455;53.224;6.000;2024-03-07T05:56:41;11.47;;;8.40;;
10805;SDS011;5455;53.224;6.000;2024-03-07T05:59:09;11.93;;;8.77;;
10805;SDS011;5455;53.224;6.000;2024-03-07T06:01:36;10.80;;;8.67;;
10805;SDS011;5455;53.224;6.000;2024-03-07T06:04:04;11.17;;;8.73;;
10805;SDS011;5455;53.224;6.000;2024-03-07T06:06:35;10.97;;;8.50;;
10805;SDS011;5455;53.224;6.000;2024-03-07T06:09:04;11.13;;;8.83;;
10805;SDS011;5455;53.224;6.000;2024-03-07T06:11:35;11.80;;;9.30;;
10805;SDS011;5455;53.224;6.000;2024-03-07T06:14:03;11.90;;;9.03;;
10805;SDS011;5455;53.224;6.000;2024-03-07T06:16:31;12.07;;;8.53;;
10805;SDS011;5455;53.224;6.000;2024-03-07T06:19:00;11.97;;;9.10;;
10805;SDS011;5455;53.224;6.000;2024-03-07T06:21:34;12.73;;;9.57;;
10805;SDS011;5455;53.224;6.000;2024-03-07T06:24:02;13.13;;;9.20;;
10805;SDS011;5455;53.224;6.000;2024-03-07T06:26:30;14.53;;;10.17;;
10805;SDS011;5455;53.224;6.000;2024-03-07T06:29:08;14.67;;;9.67;;
10805;SDS011;5455;53.224;6.000;2024-03-07T06:31:38;13.60;;;10.10;;
10805;SDS011;5455;53.224;6.000;2024-03-07T06:34:07;13.50;;;9.83;;
10805;SDS011;5455;53.224;6.000;2024-03-07T06:36:35;13.33;;;10.10;;
10805;SDS011;5455;53.224;6.000;2024-03-07T06:39:02;13.00;;;10.03;;
10805;SDS011;5455;53.224;6.000;2024-03-07T06:41:33;13.63;;;9.63;;
10805;SDS011;5455;53.224;6.000;2024-03-07T06:44:01;13.17;;;10.27;;
10805;SDS011;5455;53.224;6.000;2024-03-07T06:46:29;12.60;;;10.07;;
10805;SDS011;5455;53.224;6.000;2024-03-07T06:48:56;15.83;;;11.73;;
10805;SDS011;5455;53.224;6.000;2024-03-07T06:51:23;14.47;;;9.87;;
10805;SDS011;5455;53.224;6.000;2024-03-07T06:53:51;13.57;;;10.50;;
10805;SDS011;5455;53.224;6.000;2024-03-07T06:56:19;15.63;;;10.90;;
10805;SDS011;5455;53.224;6.000;2024-03-07T06:58:46;15.83;;;11.33;;
10805;SDS011;5455;53.224;6.000;2024-03-07T07:01:14;15.73;;;11.87;;
10805;SDS011;5455;53.224;6.000;2024-03-07T07:03:43;16.30;;;11.67;;
10805;SDS011;5455;53.224;6.000;2024-03-07T07:06:11;15.97;;;11.53;;
10805;SDS011;5455;53.224;6.000;2024-03-07T07:08:38;17.00;;;11.87;;
10805;SDS011;5455;53.224;6.000;2024-03-07T07:11:06;15.67;;;11.70;;
10805;SDS011;5455;53.224;6.000;2024-03-07T07:13:33;16.20;;;11.93;;
10805;SDS011;5455;53.224;6.000;2024-03-07T07:16:00;16.83;;;12.57;;
10805;SDS011;5455;53.224;6.000;2024-03-07T07:18:28;17.80;;;12.57;;
10805;SDS011;5455;53.224;6.000;2024-03-07T07:20:56;16.90;;;12.17;;
10805;SDS011;5455;53.224;6.000;2024-03-07T07:23:25;17.03;;;11.90;;
10805;SDS011;5455;53.224;6.000;2024-03-07T07:25:53;14.83;;;11.47;;
10805;SDS011;5455;53.224;6.000;2024-03-07T07:28:20;17.33;;;12.50;;
10805;SDS011;5455;53.224;6.000;2024-03-07T07:30:48;18.47;;;12.47;;
10805;SDS011;5455;53.224;6.000;2024-03-07T07:33:15;16.63;;;11.97;;
10805;SDS011;5455;53.224;6.000;2024-03-07T07:35:43;17.57;;;13.07;;
10805;SDS011;5455;53.224;6.000;2024-03-07T07:38:10;18.03;;;12.63;;
10805;SDS011;5455;53.224;6.000;2024-03-07T07:40:38;15.77;;;12.07;;
10805;SDS011;5455;53.224;6.000;2024-03-07T07:43:05;17.03;;;12.40;;
10805;SDS011;5455;53.224;6.000;2024-03-07T07:45:33;18.73;;;12.30;;
10805;SDS011;5455;53.224;6.000;2024-03-07T07:48:03;16.57;;;12.40;;
10805;SDS011;5455;53.224;6.000;2024-03-07T07:50:30;19.17;;;12.83;;
10805;SDS011;5455;53.224;6.000;2024-03-07T07:53:01;17.63;;;13.40;;
10805;SDS011;5455;53.224;6.000;2024-03-07T07:55:31;19.37;;;13.67;;
10805;SDS011;5455;53.224;6.000;2024-03-07T07:57:59;18.63;;;13.47;;
10805;SDS011;5455;53.224;6.000;2024-03-07T08:00:30;20.30;;;13.73;;
10805;SDS011;5455;53.224;6.000;2024-03-07T08:02:59;18.70;;;12.83;;
10805;SDS011;5455;53.224;6.000;2024-03-07T08:05:27;18.17;;;13.50;;
10805;SDS011;5455;53.224;6.000;2024-03-07T08:07:56;21.43;;;14.40;;
10805;SDS011;5455;53.224;6.000;2024-03-07T08:10:25;19.93;;;14.03;;
10805;SDS011;5455;53.224;6.000;2024-03-07T08:12:55;17.60;;;13.17;;
10805;SDS011;5455;53.224;6.000;2024-03-07T08:15:26;18.23;;;13.33;;
10805;SDS011;5455;53.224;6.000;2024-03-07T08:17:55;18.37;;;13.20;;
10805;SDS011;5455;53.224;6.000;2024-03-07T08:20:23;20.77;;;13.87;;
10805;SDS011;5455;53.224;6.000;2024-03-07T08:22:53;18.67;;;13.07;;
10805;SDS011;5455;53.224;6.000;2024-03-07T08:25:25;19.37;;;13.37;;
10805;SDS011;5455;53.224;6.000;2024-03-07T08:27:56;20.97;;;14.13;;
10805;SDS011;5455;53.224;6.000;2024-03-07T08:30:24;19.77;;;14.23;;
10805;SDS011;5455;53.224;6.000;2024-03-07T08:32:54;25.13;;;15.97;;
10805;SDS011;5455;53.224;6.000;2024-03-07T08:35:23;25.37;;;16.97;;
10805;SDS011;5455;53.224;6.000;2024-03-07T08:37:51;29.67;;;17.30;;
10805;SDS011;5455;53.224;6.000;2024-03-07T08:40:25;34.23;;;19.53;;
10805;SDS011;5455;53.224;6.000;2024-03-07T08:42:58;37.87;;;21.53;;
10805;SDS011;5455;53.224;6.000;2024-03-07T08:45:26;36.27;;;21.40;;
10805;SDS011;5455;53.224;6.000;2024-03-07T08:47:55;40.10;;;21.53;;
10805;SDS011;5455;53.224;6.000;2024-03-07T08:50:27;31.77;;;19.43;;
10805;SDS011;5455;53.224;6.000;2024-03-07T08:52:55;33.03;;;19.57;;
10805;SDS011;5455;53.224;6.000;2024-03-07T08:55:23;30.83;;;18.10;;
10805;SDS011;5455;53.224;6.000;2024-03-07T08:57:53;30.53;;;18.37;;
10805;SDS011;5455;53.224;6.000;2024-03-07T09:00:20;25.57;;;16.10;;
10805;SDS011;5455;53.224;6.000;2024-03-07T09:05:21;26.17;;;16.67;;
10805;SDS011;5455;53.224;6.000;2024-03-07T09:07:50;21.70;;;14.63;;
10805;SDS011;5455;53.224;6.000;2024-03-07T09:10:19;18.77;;;12.93;;
10805;SDS011;5455;53.224;6.000;2024-03-07T09:12:47;18.03;;;12.83;;
10805;SDS011;5455;53.224;6.000;2024-03-07T09:15:19;17.27;;;12.53;;
10805;SDS011;5455;53.224;6.000;2024-03-07T09:17:49;18.07;;;13.23;;
10805;SDS011;5455;53.224;6.000;2024-03-07T09:20:16;19.87;;;13.60;;
10805;SDS011;5455;53.224;6.000;2024-03-07T09:22:46;17.93;;;12.53;;
10805;SDS011;5455;53.224;6.000;2024-03-07T09:25:22;20.33;;;12.90;;
10805;SDS011;5455;53.224;6.000;2024-03-07T09:27:52;17.17;;;11.33;;
10805;SDS011;5455;53.224;6.000;2024-03-07T09:30:21;17.47;;;12.33;;
10805;SDS011;5455;53.224;6.000;2024-03-07T09:32:53;16.47;;;11.60;;
10805;SDS011;5455;53.224;6.000;2024-03-07T09:35:23;17.47;;;11.90;;
10805;SDS011;5455;53.224;6.000;2024-03-07T09:37:51;17.80;;;12.97;;
10805;SDS011;5455;53.224;6.000;2024-03-07T09:40:18;16.27;;;11.20;;
10805;SDS011;5455;53.224;6.000;2024-03-07T09:42:52;17.60;;;12.87;;
10805;SDS011;5455;53.224;6.000;2024-03-07T09:45:21;19.30;;;12.83;;
10805;SDS011;5455;53.224;6.000;2024-03-07T09:47:50;19.67;;;13.13;;
10805;SDS011;5455;53.224;6.000;2024-03-07T09:50:20;19.23;;;13.13;;
10805;SDS011;5455;53.224;6.000;2024-03-07T09:52:51;21.77;;;13.93;;
10805;SDS011;5455;53.224;6.000;2024-03-07T09:55:21;25.10;;;15.03;;
10805;SDS011;5455;53.224;6.000;2024-03-07T09:57:53;24.43;;;15.23;;
10805;SDS011;5455;53.224;6.000;2024-03-07T10:00:24;27.80;;;16.00;;
10805;SDS011;5455;53.224;6.000;2024-03-07T10:03:06;24.53;;;15.60;;
10805;SDS011;5455;53.224;6.000;2024-03-07T10:05:35;24.63;;;15.47;;
10805;SDS011;5455;53.224;6.000;2024-03-07T10:08:05;24.43;;;14.63;;
10805;SDS011;5455;53.224;6.000;2024-03-07T10:10:34;21.93;;;13.77;;
10805;SDS011;5455;53.224;6.000;2024-03-07T10:13:01;20.97;;;13.73;;
10805;SDS011;5455;53.224;6.000;2024-03-07T10:15:30;22.37;;;13.80;;
10805;SDS011;5455;53.224;6.000;2024-03-07T10:17:58;23.67;;;14.07;;
10805;SDS011;5455;53.224;6.000;2024-03-07T10:20:27;21.77;;;14.10;;
10805;SDS011;5455;53.224;6.000;2024-03-07T10:22:55;20.77;;;13.23;;
10805;SDS011;5455;53.224;6.000;2024-03-07T10:25:27;21.07;;;13.00;;
10805;SDS011;5455;53.224;6.000;2024-03-07T10:27:56;20.67;;;12.97;;
10805;SDS011;5455;53.224;6.000;2024-03-07T10:30:25;21.17;;;12.60;;
10805;SDS011;5455;53.224;6.000;2024-03-07T10:32:58;21.50;;;13.17;;
10805;SDS011;5455;53.224;6.000;2024-03-07T10:35:28;19.37;;;12.73;;
10805;SDS011;5455;53.224;6.000;2024-03-07T10:37:57;20.97;;;12.43;;
10805;SDS011;5455;53.224;6.000;2024-03-07T10:40:28;17.73;;;11.50;;
10805;SDS011;5455;53.224;6.000;2024-03-07T10:42:57;16.77;;;11.13;;
10805;SDS011;5455;53.224;6.000;2024-03-07T10:45:29;19.47;;;11.53;;
10805;SDS011;5455;53.224;6.000;2024-03-07T10:48:01;17.90;;;11.23;;
10805;SDS011;5455;53.224;6.000;2024-03-07T10:56:37;18.23;;;10.80;;
10805;SDS011;5455;53.224;6.000;2024-03-07T10:59:38;16.07;;;10.73;;
10805;SDS011;5455;53.224;6.000;2024-03-07T11:02:24;14.87;;;9.70;;
10805;SDS011;5455;53.224;6.000;2024-03-07T11:05:00;16.90;;;10.50;;
10805;SDS011;5455;53.224;6.000;2024-03-07T11:07:27;16.23;;;10.83;;
10805;SDS011;5455;53.224;6.000;2024-03-07T11:09:55;16.07;;;10.97;;
10805;SDS011;5455;53.224;6.000;2024-03-07T11:12:24;17.10;;;10.13;;
10805;SDS011;5455;53.224;6.000;2024-03-07T11:14:55;17.63;;;11.50;;
10805;SDS011;5455;53.224;6.000;2024-03-07T11:17:24;16.40;;;10.20;;
10805;SDS011;5455;53.224;6.000;2024-03-07T11:19:52;14.93;;;9.80;;
10805;SDS011;5455;53.224;6.000;2024-03-07T11:22:31;17.13;;;11.37;;
10805;SDS011;5455;53.224;6.000;2024-03-07T11:25:05;15.00;;;9.53;;
10805;SDS011;5455;53.224;6.000;2024-03-07T11:27:38;15.03;;;10.13;;
10805;SDS011;5455;53.224;6.000;2024-03-07T11:30:09;14.93;;;9.63;;
10805;SDS011;5455;53.224;6.000;2024-03-07T11:32:37;14.13;;;9.63;;
10805;SDS011;5455;53.224;6.000;2024-03-07T11:35:05;15.67;;;10.23;;
10805;SDS011;5455;53.224;6.000;2024-03-07T11:37:42;14.23;;;9.63;;
10805;SDS011;5455;53.224;6.000;2024-03-07T11:42:52;16.17;;;10.80;;
10805;SDS011;5455;53.224;6.000;2024-03-07T11:45:20;14.10;;;9.43;;
10805;SDS011;5455;53.224;6.000;2024-03-07T11:47:56;13.63;;;9.40;;
10805;SDS011;5455;53.224;6.000;2024-03-07T11:50:28;14.57;;;10.27;;
10805;SDS011;5455;53.224;6.000;2024-03-07T11:52:55;15.93;;;10.30;;
10805;SDS011;5455;53.224;6.000;2024-03-07T11:55:23;14.73;;;9.87;;
10805;SDS011;5455;53.224;6.000;2024-03-07T11:57:50;17.17;;;10.53;;
10805;SDS011;5455;53.224;6.000;2024-03-07T12:00:18;13.07;;;9.80;;
10805;SDS011;5455;53.224;6.000;2024-03-07T12:02:46;15.13;;;10.33;;
10805;SDS011;5455;53.224;6.000;2024-03-07T12:05:15;15.93;;;10.13;;
10805;SDS011;5455;53.224;6.000;2024-03-07T12:07:44;13.97;;;9.60;;
10805;SDS011;5455;53.224;6.000;2024-03-07T12:10:11;14.60;;;9.80;;
10805;SDS011;5455;53.224;6.000;2024-03-07T12:12:38;16.43;;;10.27;;
10805;SDS011;5455;53.224;6.000;2024-03-07T12:15:06;17.60;;;10.53;;
10805;SDS011;5455;53.224;6.000;2024-03-07T12:17:46;15.87;;;9.50;;
10805;SDS011;5455;53.224;6.000;2024-03-07T12:20:17;16.77;;;11.23;;
10805;SDS011;5455;53.224;6.000;2024-03-07T12:22:54;15.43;;;10.50;;
10805;SDS011;5455;53.224;6.000;2024-03-07T12:25:23;14.70;;;10.20;;
10805;SDS011;5455;53.224;6.000;2024-03-07T12:28:07;16.57;;;10.83;;
10805;SDS011;5455;53.224;6.000;2024-03-07T12:30:54;14.80;;;10.00;;
10805;SDS011;5455;53.224;6.000;2024-03-07T12:33:23;15.13;;;10.10;;
10805;SDS011;5455;53.224;6.000;2024-03-07T12:35:54;14.63;;;9.77;;
10805;SDS011;5455;53.224;6.000;2024-03-07T12:38:31;14.27;;;9.10;;
10805;SDS011;5455;53.224;6.000;2024-03-07T12:41:09;17.87;;;10.37;;
10805;SDS011;5455;53.224;6.000;2024-03-07T12:43:44;14.33;;;10.33;;
10805;SDS011;5455;53.224;6.000;2024-03-07T12:46:17;19.57;;;10.27;;
10805;SDS011;5455;53.224;6.000;2024-03-07T12:48:45;15.27;;;10.37;;
10805;SDS011;5455;53.224;6.000;2024-03-07T12:51:13;15.17;;;10.40;;
10805;SDS011;5455;53.224;6.000;2024-03-07T12:53:46;15.33;;;10.07;;
10805;SDS011;5455;53.224;6.000;2024-03-07T12:56:14;15.83;;;10.67;;
10805;SDS011;5455;53.224;6.000;2024-03-07T12:58:46;14.27;;;9.30;;
10805;SDS011;5455;53.224;6.000;2024-03-07T13:01:14;16.10;;;10.83;;
10805;SDS011;5455;53.224;6.000;2024-03-07T13:03:42;14.73;;;9.57;;
10805;SDS011;5455;53.224;6.000;2024-03-07T13:06:11;17.50;;;10.80;;
10805;SDS011;5455;53.224;6.000;2024-03-07T13:08:39;14.77;;;9.63;;
10805;SDS011;5455;53.224;6.000;2024-03-07T13:11:07;15.77;;;10.47;;
10805;SDS011;5455;53.224;6.000;2024-03-07T13:13:37;14.20;;;9.40;;
10805;SDS011;5455;53.224;6.000;2024-03-07T13:16:04;15.33;;;10.40;;
10805;SDS011;5455;53.224;6.000;2024-03-07T13:18:32;16.27;;;10.93;;
10805;SDS011;5455;53.224;6.000;2024-03-07T13:21:02;17.20;;;10.33;;
10805;SDS011;5455;53.224;6.000;2024-03-07T13:23:31;14.77;;;10.27;;
10805;SDS011;5455;53.224;6.000;2024-03-07T13:26:01;16.27;;;10.83;;
10805;SDS011;5455;53.224;6.000;2024-03-07T13:28:28;15.77;;;10.67;;
10805;SDS011;5455;53.224;6.000;2024-03-07T13:30:56;13.83;;;9.43;;
10805;SDS011;5455;53.224;6.000;2024-03-07T13:33:25;15.63;;;9.63;;
10805;SDS011;5455;53.224;6.000;2024-03-07T13:35:54;16.43;;;10.13;;
10805;SDS011;5455;53.224;6.000;2024-03-07T13:38:21;14.83;;;9.80;;
10805;SDS011;5455;53.224;6.000;2024-03-07T13:40:49;14.03;;;9.47;;
10805;SDS011;5455;53.224;6.000;2024-03-07T13:43:16;14.40;;;9.30;;
10805;SDS011;5455;53.224;6.000;2024-03-07T13:45:45;14.13;;;9.13;;
10805;SDS011;5455;53.224;6.000;2024-03-07T13:48:15;15.77;;;9.70;;
10805;SDS011;5455;53.224;6.000;2024-03-07T13:50:47;15.50;;;9.63;;
10805;SDS011;5455;53.224;6.000;2024-03-07T13:53:28;14.47;;;9.40;;
10805;SDS011;5455;53.224;6.000;2024-03-07T14:03:45;14.70;;;9.20;;
10805;SDS011;5455;53.224;6.000;2024-03-07T14:20:50;14.77;;;8.57;;
10805;SDS011;5455;53.224;6.000;2024-03-07T14:26:37;14.03;;;8.27;;
10805;SDS011;5455;53.224;6.000;2024-03-07T14:32:06;13.57;;;8.50;;
10805;SDS011;5455;53.224;6.000;2024-03-07T14:37:38;13.00;;;9.10;;
10805;SDS011;5455;53.224;6.000;2024-03-07T14:40:13;13.90;;;9.00;;
10805;SDS011;5455;53.224;6.000;2024-03-07T14:42:44;12.93;;;8.53;;
10805;SDS011;5455;53.224;6.000;2024-03-07T14:45:15;12.33;;;8.67;;
10805;SDS011;5455;53.224;6.000;2024-03-07T14:47:48;12.50;;;8.23;;
10805;SDS011;5455;53.224;6.000;2024-03-07T14:50:19;12.50;;;7.90;;
10805;SDS011;5455;53.224;6.000;2024-03-07T14:52:49;11.80;;;7.83;;
10805;SDS011;5455;53.224;6.000;2024-03-07T14:55:17;12.60;;;8.07;;
10805;SDS011;5455;53.224;6.000;2024-03-07T14:57:45;13.87;;;8.50;;
10805;SDS011;5455;53.224;6.000;2024-03-07T15:00:13;11.93;;;7.77;;
10805;SDS011;5455;53.224;6.000;2024-03-07T15:02:59;10.83;;;8.03;;
10805;SDS011;5455;53.224;6.000;2024-03-07T15:05:27;11.53;;;7.83;;
10805;SDS011;5455;53.224;6.000;2024-03-07T15:07:54;10.47;;;7.53;;
10805;SDS011;5455;53.224;6.000;2024-03-07T15:10:26;12.37;;;7.97;;
10805;SDS011;5455;53.224;6.000;2024-03-07T15:13:02;12.93;;;7.73;;
10805;SDS011;5455;53.224;6.000;2024-03-07T15:15:30;12.07;;;7.80;;
10805;SDS011;5455;53.224;6.000;2024-03-07T15:17:59;12.47;;;8.57;;
10805;SDS011;5455;53.224;6.000;2024-03-07T15:20:27;11.10;;;7.83;;
10805;SDS011;5455;53.224;6.000;2024-03-07T15:22:57;11.87;;;7.67;;
10805;SDS011;5455;53.224;6.000;2024-03-07T15:25:27;10.80;;;7.23;;
10805;SDS011;5455;53.224;6.000;2024-03-07T15:27:54;12.37;;;8.70;;
10805;SDS011;5455;53.224;6.000;2024-03-07T15:30:23;11.70;;;7.93;;
10805;SDS011;5455;53.224;6.000;2024-03-07T15:33:03;12.97;;;7.80;;
10805;SDS011;5455;53.224;6.000;2024-03-07T15:35:31;14.07;;;8.30;;
10805;SDS011;5455;53.224;6.000;2024-03-07T15:38:00;11.33;;;7.90;;